Time;durP1;ratioP1;P1;durP2;ratioP2;P2;SDS_P1;SDS_P2;PMS_P1;PMS_P2;Temp;Humidity;BMP_temperature;BMP_pressure;BME280_temperature;BME280_humidity;BME280_pressure;Samples;Min_cycle;Max_cycle;Signal;HPM_P1;HPM_P2
2023/08/05 00:00:06;;;;;;;;;;;13.70;99.90;;;;;;5126825;27;19959;-45
2023/08/05 00:02:31;;;;;;;;;;;13.70;99.90;;;;;;5131024;28;20155;-49
2023/08/05 00:04:57;;;;;;;;;;;13.70;99.90;;;;;;5115582;28;19916;-45
2023/08/05 00:07:22;;;;;;;;;;;13.80;99.90;;;;;;5119152;27;20500;-46
2023/08/05 00:09:47;;;;;;;;;;;13.80;99.90;;;;;;5130997;27;19915;-45
2023/08/05 00:12:13;;;;;;;;;;;13.80;99.90;;;;;;5133505;27;19908;-44
2023/08/05 00:14:38;;;;;;;;;;;13.90;99.90;;;;;;5133349;27;19919;-44
2023/08/05 00:17:04;;;;;;;;;;;13.90;99.90;;;;;;5149638;27;19911;-45
2023/08/05 00:19:30;;;;;;;;;;;14.00;99.90;;;;;;5154082;27;19942;-45
2023/08/05 00:21:55;;;;;;;;;;;14.00;99.90;;;;;;5153390;27;20343;-45
2023/08/05 00:24:21;;;;;;;;;;;14.00;99.90;;;;;;5146928;27;19927;-45
2023/08/05 00:26:46;;;;;;;;;;;14.00;99.90;;;;;;5133325;27;20309;-47
2023/08/05 00:29:11;;;;;;;;;;;14.10;99.90;;;;;;5132500;27;20293;-44
2023/08/05 00:31:37;;;;;;;;;;;14.10;99.90;;;;;;5133107;27;19915;-45
2023/08/05 00:34:02;;;;;;;;;;;14.10;99.90;;;;;;5133167;27;19915;-45
2023/08/05 00:36:28;;;;;;;;;;;14.10;99.90;;;;;;5132383;28;19947;-45
2023/08/05 00:38:53;;;;;;;;;;;14.10;99.90;;;;;;5133324;28;20270;-44
2023/08/05 00:41:19;;;;;;;;;;;14.10;99.90;;;;;;5134406;27;19960;-44
2023/08/05 00:43:44;;;;;;;;;;;14.10;99.90;;;;;;5135964;27;19977;-45
2023/08/05 00:46:11;;;;;;;;;;;14.10;99.90;;;;;;5137217;27;19912;-46
2023/08/05 00:48:36;;;;;;;;;;;14.10;99.90;;;;;;5136996;27;19947;-44
2023/08/05 00:51:03;;;;;;;;;;;14.20;99.90;;;;;;5136288;27;19939;-45
2023/08/05 00:53:29;;;;;;;;;;;14.20;99.90;;;;;;5136719;27;19911;-45
2023/08/05 00:55:54;;;;;;;;;;;14.20;99.90;;;;;;5137000;27;19957;-45
2023/08/05 00:58:20;;;;;;;;;;;14.20;99.90;;;;;;5136109;27;20343;-46
2023/08/05 01:00:47;;;;;;;;;;;14.20;99.90;;;;;;5136824;27;19964;-45
2023/08/05 01:03:12;;;;;;;;;;;14.20;99.90;;;;;;5136644;27;19929;-44
2023/08/05 01:05:38;;;;;;;;;;;14.20;99.90;;;;;;5135695;27;19911;-45
2023/08/05 01:08:04;;;;;;;;;;;14.20;99.90;;;;;;5137795;27;19945;-44
2023/08/05 01:10:30;;;;;;;;;;;14.30;99.90;;;;;;5136624;27;19933;-44
2023/08/05 01:12:55;;;;;;;;;;;14.30;99.90;;;;;;5135956;27;20303;-44
2023/08/05 01:15:21;;;;;;;;;;;14.30;99.90;;;;;;5136286;27;20456;-46
2023/08/05 01:17:46;;;;;;;;;;;14.30;99.90;;;;;;5136335;27;19911;-46
2023/08/05 01:20:13;;;;;;;;;;;14.30;99.90;;;;;;5135760;27;19916;-46
2023/08/05 01:22:42;;;;;;;;;;;14.40;99.90;;;;;;5136094;27;20403;-44
2023/08/05 01:25:25;;;;;;;;;;;14.30;99.90;;;;;;5135651;27;20425;-46
2023/08/05 01:27:52;;;;;;;;;;;14.30;99.90;;;;;;5136206;27;19915;-46
2023/08/05 01:30:17;;;;;;;;;;;14.30;99.90;;;;;;5136307;27;19911;-44
2023/08/05 01:32:43;;;;;;;;;;;14.40;99.90;;;;;;5135351;27;19963;-45
2023/08/05 01:35:09;;;;;;;;;;;14.40;99.90;;;;;;5136219;27;19957;-47
2023/08/05 01:37:35;;;;;;;;;;;14.30;99.90;;;;;;5136058;27;19942;-45
2023/08/05 01:40:00;;;;;;;;;;;14.30;99.90;;;;;;5135534;27;20381;-44
2023/08/05 01:42:26;;;;;;;;;;;14.30;99.90;;;;;;5135768;27;19942;-45
2023/08/05 01:44:51;;;;;;;;;;;14.30;99.90;;;;;;5136003;27;20362;-45
2023/08/05 01:47:17;;;;;;;;;;;14.30;99.90;;;;;;5135290;27;19948;-47
2023/08/05 01:49:42;;;;;;;;;;;14.30;99.90;;;;;;5135564;27;19937;-46
2023/08/05 01:52:08;;;;;;;;;;;14.30;99.90;;;;;;5137851;27;20278;-43
2023/08/05 01:54:33;;;;;;;;;;;14.20;99.90;;;;;;5154724;27;19911;-46
2023/08/05 01:56:58;;;;;;;;;;;14.20;99.90;;;;;;5154481;27;20301;-46
2023/08/05 01:59:24;;;;;;;;;;;14.20;99.90;;;;;;5155701;27;19911;-43
2023/08/05 02:01:49;;;;;;;;;;;14.20;99.90;;;;;;5155836;27;19908;-45
2023/08/05 02:04:15;;;;;;;;;;;14.20;99.90;;;;;;5141725;27;19923;-44
2023/08/05 02:06:41;;;;;;;;;;;14.10;99.90;;;;;;5135570;27;19915;-45
2023/08/05 02:09:07;;;;;;;;;;;14.10;99.90;;;;;;5134854;27;20384;-45
2023/08/05 02:11:33;;;;;;;;;;;14.00;99.90;;;;;;5132726;27;19919;-44
2023/08/05 02:13:58;;;;;;;;;;;14.00;99.90;;;;;;5135384;27;19912;-44
2023/08/05 02:16:24;;;;;;;;;;;14.00;99.90;;;;;;5134557;27;20289;-44
2023/08/05 02:18:50;;;;;;;;;;;13.90;99.90;;;;;;5135280;27;20384;-47
2023/08/05 02:21:16;;;;;;;;;;;13.90;99.90;;;;;;5153271;27;20052;-45
2023/08/05 02:23:41;;;;;;;;;;;13.90;99.90;;;;;;5154593;27;20029;-45
2023/08/05 02:26:06;;;;;;;;;;;13.90;99.90;;;;;;5156017;27;19907;-45
2023/08/05 02:28:32;;;;;;;;;;;13.90;99.90;;;;;;5152670;27;19963;-45
2023/08/05 02:30:57;;;;;;;;;;;13.90;99.90;;;;;;5154911;27;19918;-47
2023/08/05 02:33:23;;;;;;;;;;;13.90;99.90;;;;;;5155263;27;19915;-46
2023/08/05 02:35:48;;;;;;;;;;;13.90;99.90;;;;;;5154622;27;19907;-44
2023/08/05 02:38:14;;;;;;;;;;;13.80;99.90;;;;;;5155065;27;19911;-45
2023/08/05 02:40:40;;;;;;;;;;;13.80;99.90;;;;;;5154647;27;20434;-46
2023/08/05 02:43:05;;;;;;;;;;;13.80;99.90;;;;;;5154451;27;20045;-46
2023/08/05 02:45:31;;;;;;;;;;;13.80;99.90;;;;;;5154894;27;20393;-46
2023/08/05 02:47:56;;;;;;;;;;;13.80;99.90;;;;;;5155217;27;20273;-45
2023/08/05 02:50:22;;;;;;;;;;;13.70;99.90;;;;;;5153351;27;19915;-44
2023/08/05 02:52:47;;;;;;;;;;;13.70;99.90;;;;;;5153977;27;20340;-46
2023/08/05 02:55:12;;;;;;;;;;;13.70;99.90;;;;;;5155100;27;19963;-45
2023/08/05 02:57:38;;;;;;;;;;;13.60;99.90;;;;;;5154512;27;20285;-45
2023/08/05 03:00:04;;;;;;;;;;;13.60;99.90;;;;;;5155375;27;19918;-44
2023/08/05 03:02:29;;;;;;;;;;;13.50;99.90;;;;;;5154348;27;19936;-46
2023/08/05 03:04:55;;;;;;;;;;;13.50;99.90;;;;;;5153249;27;19907;-46
2023/08/05 03:07:20;;;;;;;;;;;13.50;99.90;;;;;;5155024;27;20366;-47
2023/08/05 03:09:46;;;;;;;;;;;13.40;99.90;;;;;;5154445;27;19911;-46
2023/08/05 03:12:12;;;;;;;;;;;13.40;99.90;;;;;;5154316;27;19924;-46
2023/08/05 03:14:38;;;;;;;;;;;13.30;99.90;;;;;;5155025;27;19911;-44
2023/08/05 03:17:03;;;;;;;;;;;13.30;99.90;;;;;;5139392;27;19911;-46
2023/08/05 03:19:29;;;;;;;;;;;13.30;99.90;;;;;;5133375;27;19942;-47
2023/08/05 03:21:54;;;;;;;;;;;13.30;99.90;;;;;;5134003;27;19939;-44
2023/08/05 03:24:19;;;;;;;;;;;13.30;99.90;;;;;;5135079;27;19938;-47
2023/08/05 03:26:45;;;;;;;;;;;13.30;99.90;;;;;;5132981;27;19911;-44
2023/08/05 03:29:10;;;;;;;;;;;13.30;99.90;;;;;;5133938;27;19911;-45
2023/08/05 03:31:36;;;;;;;;;;;13.30;99.90;;;;;;5133795;27;19911;-43
2023/08/05 03:34:01;;;;;;;;;;;13.30;99.90;;;;;;5133168;27;20006;-44
2023/08/05 03:36:27;;;;;;;;;;;13.20;99.90;;;;;;5133856;27;19907;-45
2023/08/05 03:38:53;;;;;;;;;;;13.20;99.90;;;;;;5133073;27;19986;-45
2023/08/05 03:41:19;;;;;;;;;;;13.10;99.90;;;;;;5133915;27;20282;-45
2023/08/05 03:43:44;;;;;;;;;;;13.10;99.90;;;;;;5139945;27;19944;-46
2023/08/05 03:46:10;;;;;;;;;;;13.10;99.90;;;;;;5152166;27;19964;-45
2023/08/05 03:48:37;;;;;;;;;;;13.10;99.90;;;;;;5154209;27;19922;-46
2023/08/05 03:51:02;;;;;;;;;;;13.10;99.90;;;;;;5153472;27;20297;-45
2023/08/05 03:53:28;;;;;;;;;;;13.10;99.90;;;;;;5153007;27;19918;-47
2023/08/05 03:55:53;;;;;;;;;;;13.10;99.90;;;;;;5154477;27;19914;-44
2023/08/05 03:58:19;;;;;;;;;;;13.20;99.90;;;;;;5152726;27;20318;-45
2023/08/05 04:00:45;;;;;;;;;;;13.20;99.90;;;;;;5151946;27;20425;-45
2023/08/05 04:03:11;;;;;;;;;;;13.20;99.90;;;;;;5153709;27;20387;-45
2023/08/05 04:05:36;;;;;;;;;;;13.30;99.90;;;;;;5153637;27;19919;-44
2023/08/05 04:08:02;;;;;;;;;;;13.30;99.90;;;;;;5153511;27;19911;-44
2023/08/05 04:10:28;;;;;;;;;;;13.40;99.90;;;;;;5153185;27;20044;-44
2023/08/05 04:12:54;;;;;;;;;;;13.40;99.90;;;;;;5152693;27;19954;-47
2023/08/05 04:15:20;;;;;;;;;;;13.50;99.90;;;;;;5148239;27;19988;-45
2023/08/05 04:17:47;;;;;;;;;;;13.50;99.90;;;;;;5137649;27;20366;-45
2023/08/05 04:20:12;;;;;;;;;;;13.60;99.90;;;;;;5137490;27;20289;-45
2023/08/05 04:22:38;;;;;;;;;;;13.50;99.90;;;;;;5136643;27;19916;-45
2023/08/05 04:25:04;;;;;;;;;;;13.60;99.90;;;;;;5137590;27;19915;-46
2023/08/05 04:27:30;;;;;;;;;;;13.60;99.90;;;;;;5137420;27;19919;-44
2023/08/05 04:29:56;;;;;;;;;;;13.60;99.90;;;;;;5156245;27;19911;-46
2023/08/05 04:32:21;;;;;;;;;;;13.60;99.90;;;;;;5157455;27;19934;-46
2023/08/05 04:34:47;;;;;;;;;;;13.60;99.90;;;;;;5158051;27;19999;-45
2023/08/05 04:37:16;;;;;;;;;;;13.60;99.90;;;;;;5157415;27;19938;-45
2023/08/05 04:39:42;;;;;;;;;;;13.60;99.90;;;;;;5155971;27;20517;-45
2023/08/05 04:42:08;;;;;;;;;;;13.70;99.90;;;;;;5156745;27;19919;-44
2023/08/05 04:44:33;;;;;;;;;;;13.60;99.90;;;;;;5156143;27;20400;-44
2023/08/05 04:46:59;;;;;;;;;;;13.70;99.90;;;;;;5157911;27;20009;-45
2023/08/05 04:49:24;;;;;;;;;;;13.70;99.90;;;;;;5152348;27;20030;-48
2023/08/05 04:51:49;;;;;;;;;;;13.70;99.90;;;;;;5135141;27;19933;-46
2023/08/05 04:54:15;;;;;;;;;;;13.80;99.90;;;;;;5134751;27;19912;-45
2023/08/05 04:56:40;;;;;;;;;;;13.80;99.90;;;;;;5130458;27;19912;-46
2023/08/05 04:59:06;;;;;;;;;;;13.80;99.90;;;;;;5135151;27;19911;-45
2023/08/05 05:01:32;;;;;;;;;;;13.80;99.90;;;;;;5136570;27;20266;-45
2023/08/05 05:03:58;;;;;;;;;;;13.80;99.90;;;;;;5135850;27;19923;-45
2023/08/05 05:06:24;;;;;;;;;;;13.80;99.90;;;;;;5130745;27;19912;-44
2023/08/05 05:08:49;;;;;;;;;;;13.80;99.90;;;;;;5115974;28;19908;-46
2023/08/05 05:11:15;;;;;;;;;;;13.80;99.90;;;;;;5143730;27;20277;-44
2023/08/05 05:13:43;;;;;;;;;;;13.80;99.90;;;;;;5157371;27;19911;-45
2023/08/05 05:16:09;;;;;;;;;;;13.80;99.90;;;;;;5155421;27;20002;-44
2023/08/05 05:18:34;;;;;;;;;;;13.90;99.90;;;;;;5150345;27;20048;-46
2023/08/05 05:21:00;;;;;;;;;;;13.90;99.90;;;;;;5136392;27;19914;-45
2023/08/05 05:23:26;;;;;;;;;;;14.00;99.90;;;;;;5138359;27;20004;-45
2023/08/05 05:25:51;;;;;;;;;;;14.10;99.90;;;;;;5133371;27;19911;-45
2023/08/05 05:28:17;;;;;;;;;;;14.20;99.90;;;;;;5135079;27;20111;-45
2023/08/05 05:30:42;;;;;;;;;;;14.30;99.90;;;;;;5135999;27;19923;-44
2023/08/05 05:33:08;;;;;;;;;;;14.30;99.90;;;;;;5135561;27;19923;-45
2023/08/05 05:35:33;;;;;;;;;;;14.50;99.90;;;;;;5133058;27;19998;-46
2023/08/05 05:37:59;;;;;;;;;;;14.50;99.90;;;;;;5136106;27;19917;-45
2023/08/05 05:40:24;;;;;;;;;;;14.60;99.90;;;;;;5129009;27;19907;-45
2023/08/05 05:42:50;;;;;;;;;;;14.70;99.90;;;;;;5127648;27;20027;-45
2023/08/05 05:45:15;;;;;;;;;;;14.70;99.90;;;;;;5115417;27;19912;-44
2023/08/05 05:47:41;;;;;;;;;;;14.80;99.90;;;;;;5132470;27;19964;-45
2023/08/05 05:50:07;;;;;;;;;;;14.80;99.90;;;;;;5136071;27;20052;-45
2023/08/05 05:52:33;;;;;;;;;;;14.90;99.90;;;;;;5126396;27;19938;-47
2023/08/05 05:54:59;;;;;;;;;;;14.90;99.90;;;;;;5134662;27;20350;-45
2023/08/05 05:57:24;;;;;;;;;;;14.90;99.90;;;;;;5135642;27;19918;-44
2023/08/05 05:59:50;;;;;;;;;;;15.00;99.90;;;;;;5135589;27;19988;-47
2023/08/05 06:02:15;;;;;;;;;;;14.90;99.90;;;;;;5145502;27;19911;-44
2023/08/05 06:04:43;;;;;;;;;;;15.00;99.90;;;;;;5154922;27;19923;-49
2023/08/05 06:07:09;;;;;;;;;;;15.00;99.90;;;;;;5155331;27;19911;-45
2023/08/05 06:09:35;;;;;;;;;;;15.00;99.90;;;;;;5131951;27;19918;-45
2023/08/05 06:12:00;;;;;;;;;;;15.10;99.90;;;;;;5119494;27;20009;-45
2023/08/05 06:14:26;;;;;;;;;;;15.20;99.90;;;;;;5135740;27;19911;-44
2023/08/05 06:16:52;;;;;;;;;;;15.20;99.90;;;;;;5136935;27;19999;-45
2023/08/05 06:19:17;;;;;;;;;;;15.20;99.90;;;;;;5134264;27;19956;-44
2023/08/05 06:21:43;;;;;;;;;;;15.30;99.90;;;;;;5136281;27;19915;-46
2023/08/05 06:24:08;;;;;;;;;;;15.30;99.90;;;;;;5130635;27;19928;-47
2023/08/05 06:26:34;;;;;;;;;;;15.30;99.90;;;;;;5126575;27;19961;-46
2023/08/05 06:28:59;;;;;;;;;;;15.40;99.90;;;;;;5123913;27;19911;-46
2023/08/05 06:31:25;;;;;;;;;;;15.40;99.90;;;;;;5134829;27;19908;-46
2023/08/05 06:33:50;;;;;;;;;;;15.50;99.90;;;;;;5123162;27;19959;-46
2023/08/05 06:36:16;;;;;;;;;;;15.60;99.90;;;;;;5113587;28;19925;-46
2023/08/05 06:38:41;;;;;;;;;;;15.60;99.90;;;;;;5119537;27;19919;-46
2023/08/05 06:41:07;;;;;;;;;;;15.70;99.90;;;;;;5123433;27;19969;-44
2023/08/05 06:43:32;;;;;;;;;;;15.80;99.90;;;;;;5128735;27;20438;-46
2023/08/05 06:45:58;;;;;;;;;;;15.90;99.90;;;;;;5116802;27;19919;-47
2023/08/05 06:48:23;;;;;;;;;;;16.00;99.90;;;;;;5114125;28;20018;-44
2023/08/05 06:50:49;;;;;;;;;;;16.10;99.90;;;;;;5113234;28;20345;-44
2023/08/05 06:53:14;;;;;;;;;;;16.30;99.90;;;;;;5113996;28;19919;-44
2023/08/05 06:55:40;;;;;;;;;;;16.40;99.90;;;;;;5121318;27;20002;-48
2023/08/05 06:58:05;;;;;;;;;;;16.40;99.90;;;;;;5133375;27;19907;-44
2023/08/05 07:00:31;;;;;;;;;;;16.50;99.90;;;;;;5150746;27;20361;-45
2023/08/05 07:02:57;;;;;;;;;;;16.50;99.90;;;;;;5146210;27;19916;-44
2023/08/05 07:05:23;;;;;;;;;;;16.50;99.90;;;;;;5142566;27;20313;-45
2023/08/05 07:07:49;;;;;;;;;;;16.60;99.90;;;;;;5145515;27;19908;-44
2023/08/05 07:10:15;;;;;;;;;;;16.60;99.90;;;;;;5132746;27;20018;-46
2023/08/05 07:12:40;;;;;;;;;;;16.70;99.90;;;;;;5128383;27;19998;-44
2023/08/05 07:15:06;;;;;;;;;;;16.70;99.90;;;;;;5134316;27;19908;-47
2023/08/05 07:17:32;;;;;;;;;;;16.80;99.90;;;;;;5125921;27;19912;-44
2023/08/05 07:19:58;;;;;;;;;;;16.80;99.90;;;;;;5113842;28;20014;-44
2023/08/05 07:22:23;;;;;;;;;;;16.90;99.90;;;;;;5113465;28;20293;-45
2023/08/05 07:24:49;;;;;;;;;;;16.90;99.90;;;;;;5112243;28;19911;-45
2023/08/05 07:27:14;;;;;;;;;;;17.00;99.90;;;;;;5113232;28;19950;-45
2023/08/05 07:29:43;;;;;;;;;;;17.00;99.90;;;;;;5120211;27;19907;-47
2023/08/05 07:32:08;;;;;;;;;;;17.00;99.90;;;;;;5135393;27;19972;-45
2023/08/05 07:34:34;;;;;;;;;;;17.10;99.90;;;;;;5154413;27;19912;-45
2023/08/05 07:37:00;;;;;;;;;;;17.10;99.90;;;;;;5144886;27;19911;-48
2023/08/05 07:39:33;;;;;;;;;;;17.10;99.90;;;;;;5120038;27;19918;-45
2023/08/05 07:42:00;;;;;;;;;;;17.10;99.90;;;;;;5128932;27;19923;-44
2023/08/05 07:44:25;;;;;;;;;;;17.10;99.90;;;;;;5120693;27;19927;-45
2023/08/05 07:46:52;;;;;;;;;;;17.10;99.90;;;;;;5114310;27;19908;-44
2023/08/05 07:49:18;;;;;;;;;;;17.20;99.90;;;;;;5123006;27;19918;-45
2023/08/05 07:51:46;;;;;;;;;;;17.20;99.90;;;;;;5126311;27;19920;-46
2023/08/05 07:54:12;;;;;;;;;;;17.30;99.90;;;;;;5132379;27;19911;-44
2023/08/05 07:56:39;;;;;;;;;;;17.30;99.90;;;;;;5121696;28;20053;-44
2023/08/05 07:59:04;;;;;;;;;;;17.40;99.90;;;;;;5121482;28;19912;-44
2023/08/05 08:01:31;;;;;;;;;;;17.50;99.90;;;;;;5124324;28;19918;-45
2023/08/05 08:04:01;;;;;;;;;;;17.60;99.90;;;;;;5142269;27;19960;-45
2023/08/05 08:06:27;;;;;;;;;;;17.70;99.90;;;;;;5117121;28;19919;-48
2023/08/05 08:08:52;;;;;;;;;;;17.80;99.90;;;;;;5118141;28;19908;-45
2023/08/05 08:11:18;;;;;;;;;;;17.90;99.90;;;;;;5132600;27;19911;-44
2023/08/05 08:13:43;;;;;;;;;;;18.00;99.90;;;;;;5127310;27;20384;-45
2023/08/05 08:16:09;;;;;;;;;;;18.10;99.90;;;;;;5119582;27;19918;-45
2023/08/05 08:18:35;;;;;;;;;;;18.10;99.90;;;;;;5121172;28;19908;-47
2023/08/05 08:21:00;;;;;;;;;;;18.00;99.90;;;;;;5113175;28;19942;-44
2023/08/05 08:23:25;;;;;;;;;;;18.00;99.90;;;;;;5113435;28;19923;-46
2023/08/05 08:25:51;;;;;;;;;;;18.00;99.90;;;;;;5117426;28;20294;-44
2023/08/05 08:28:16;;;;;;;;;;;18.00;99.90;;;;;;5133546;28;19907;-44
2023/08/05 08:30:52;;;;;;;;;;;18.00;99.90;;;;;;5128371;28;19912;-46
2023/08/05 08:33:17;;;;;;;;;;;18.10;99.90;;;;;;5132948;27;20353;-45
2023/08/05 08:35:43;;;;;;;;;;;18.30;99.90;;;;;;5131888;28;19922;-44
2023/08/05 08:38:09;;;;;;;;;;;18.40;99.90;;;;;;5126337;28;20338;-48
2023/08/05 08:40:35;;;;;;;;;;;18.50;99.90;;;;;;5133251;28;19939;-44
2023/08/05 08:43:01;;;;;;;;;;;18.60;99.90;;;;;;5128284;28;20069;-44
2023/08/05 08:45:31;;;;;;;;;;;18.70;99.90;;;;;;5128181;28;19911;-46
2023/08/05 08:47:56;;;;;;;;;;;18.80;99.90;;;;;;5122964;28;20381;-44
2023/08/05 08:50:22;;;;;;;;;;;18.90;99.90;;;;;;5142311;27;19961;-45
2023/08/05 08:52:48;;;;;;;;;;;19.00;99.90;;;;;;5132472;27;19915;-46
2023/08/05 08:55:14;;;;;;;;;;;19.00;99.90;;;;;;5123800;28;19915;-46
2023/08/05 08:57:40;;;;;;;;;;;19.00;99.90;;;;;;5120994;27;19912;-45
2023/08/05 09:00:06;;;;;;;;;;;19.10;99.90;;;;;;5125036;27;20393;-44
2023/08/05 09:02:32;;;;;;;;;;;19.20;99.90;;;;;;5146866;27;19911;-44
2023/08/05 09:04:58;;;;;;;;;;;19.30;99.90;;;;;;5137868;27;19916;-45
2023/08/05 09:07:27;;;;;;;;;;;19.30;99.90;;;;;;5123426;27;19912;-47
2023/08/05 09:09:53;;;;;;;;;;;19.20;99.90;;;;;;5120389;27;19923;-46
2023/08/05 09:12:19;;;;;;;;;;;19.20;99.90;;;;;;5136379;27;20008;-44
2023/08/05 09:14:44;;;;;;;;;;;19.10;99.90;;;;;;5129458;27;19992;-45
2023/08/05 09:17:12;;;;;;;;;;;19.10;99.90;;;;;;5124868;27;19912;-45
2023/08/05 09:19:40;;;;;;;;;;;19.10;99.90;;;;;;5137396;27;19911;-45
2023/08/05 09:22:05;;;;;;;;;;;19.10;99.90;;;;;;5136310;27;19921;-44
2023/08/05 09:24:31;;;;;;;;;;;19.10;99.90;;;;;;5126565;27;19927;-45
2023/08/05 09:26:59;;;;;;;;;;;19.20;99.90;;;;;;5124751;27;19911;-45
2023/08/05 09:29:26;;;;;;;;;;;19.30;99.90;;;;;;5131689;27;19911;-44
2023/08/05 09:31:58;;;;;;;;;;;19.20;99.90;;;;;;5129408;27;19941;-47
2023/08/05 09:34:37;;;;;;;;;;;19.30;99.90;;;;;;5133449;27;19922;-44
2023/08/05 09:37:03;;;;;;;;;;;19.40;99.90;;;;;;5137424;27;20033;-44
2023/08/05 09:39:45;;;;;;;;;;;19.50;99.90;;;;;;5133325;27;20321;-44
2023/08/05 09:42:23;;;;;;;;;;;19.50;99.90;;;;;;5142820;27;19926;-44
2023/08/05 09:44:49;;;;;;;;;;;19.60;99.90;;;;;;5136097;27;19923;-47
2023/08/05 09:47:18;;;;;;;;;;;19.70;99.90;;;;;;5143318;27;20022;-47
2023/08/05 09:49:49;;;;;;;;;;;19.70;99.90;;;;;;5139742;27;19915;-43
2023/08/05 09:52:20;;;;;;;;;;;19.80;99.90;;;;;;5126798;27;19919;-44
2023/08/05 09:55:07;;;;;;;;;;;19.80;99.90;;;;;;5134209;27;19927;-46
2023/08/05 09:57:33;;;;;;;;;;;19.80;99.90;;;;;;5132917;27;19915;-45
2023/08/05 09:59:59;;;;;;;;;;;19.90;99.90;;;;;;5119163;27;19914;-45
2023/08/05 10:02:25;;;;;;;;;;;19.90;99.90;;;;;;5129949;27;19911;-47
2023/08/05 10:04:53;;;;;;;;;;;20.00;99.90;;;;;;5133225;27;19923;-44
2023/08/05 10:07:22;;;;;;;;;;;20.10;99.90;;;;;;5130615;27;19923;-45
2023/08/05 10:09:48;;;;;;;;;;;20.10;99.90;;;;;;5113977;28;19915;-46
2023/08/05 10:12:15;;;;;;;;;;;20.00;99.90;;;;;;5131650;27;20289;-45
2023/08/05 10:14:41;;;;;;;;;;;19.90;99.90;;;;;;5141062;27;20030;-44
2023/08/05 10:17:07;;;;;;;;;;;19.90;99.90;;;;;;5139664;27;20009;-45
2023/08/05 10:19:33;;;;;;;;;;;19.90;99.90;;;;;;5133543;27;20074;-45
2023/08/05 10:22:11;;;;;;;;;;;19.80;99.90;;;;;;5133992;27;19995;-44
2023/08/05 10:24:53;;;;;;;;;;;19.90;99.90;;;;;;5135175;27;20010;-45
2023/08/05 10:27:32;;;;;;;;;;;19.90;99.90;;;;;;5114057;28;19945;-44
2023/08/05 10:29:57;;;;;;;;;;;20.00;99.90;;;;;;5114666;28;19999;-44
2023/08/05 10:32:27;;;;;;;;;;;20.10;99.90;;;;;;5122872;27;20015;-45
2023/08/05 10:35:11;;;;;;;;;;;20.20;99.90;;;;;;5134290;27;19908;-45
2023/08/05 10:37:49;;;;;;;;;;;20.30;99.90;;;;;;5135144;27;20004;-45
2023/08/05 10:40:33;;;;;;;;;;;20.20;99.90;;;;;;5135040;27;19907;-44
2023/08/05 10:42:59;;;;;;;;;;;20.30;99.90;;;;;;5133807;27;20316;-45
2023/08/05 10:45:24;;;;;;;;;;;20.40;99.90;;;;;;5142202;27;19911;-45
2023/08/05 10:47:50;;;;;;;;;;;20.60;99.90;;;;;;5133188;27;19911;-45
2023/08/05 10:50:16;;;;;;;;;;;20.80;99.90;;;;;;5135885;27;19908;-45
2023/08/05 10:52:41;;;;;;;;;;;20.90;99.90;;;;;;5144779;27;19911;-45
2023/08/05 10:55:11;;;;;;;;;;;21.10;99.90;;;;;;5135958;27;20062;-47
2023/08/05 10:57:39;;;;;;;;;;;21.30;99.90;;;;;;5147914;27;19911;-45
2023/08/05 11:00:07;;;;;;;;;;;21.30;99.90;;;;;;5139502;27;19918;-44
2023/08/05 11:02:33;;;;;;;;;;;21.30;99.90;;;;;;5133644;27;19907;-46
2023/08/05 11:05:06;;;;;;;;;;;21.20;99.90;;;;;;5134487;27;19911;-44
2023/08/05 11:07:32;;;;;;;;;;;21.40;99.90;;;;;;5133667;27;20361;-44
2023/08/05 11:09:58;;;;;;;;;;;21.40;99.90;;;;;;5113856;27;19914;-45
2023/08/05 11:12:26;;;;;;;;;;;21.60;99.90;;;;;;5128144;27;20002;-44
2023/08/05 11:14:52;;;;;;;;;;;21.70;99.90;;;;;;5133632;27;19911;-45
2023/08/05 11:17:17;;;;;;;;;;;21.80;99.90;;;;;;5132109;27;19938;-45
2023/08/05 11:19:53;;;;;;;;;;;21.90;99.90;;;;;;5133166;27;20002;-45
2023/08/05 11:22:26;;;;;;;;;;;22.00;99.90;;;;;;5126537;27;19972;-47
2023/08/05 11:24:59;;;;;;;;;;;22.10;99.90;;;;;;5123657;27;19976;-45
2023/08/05 11:27:40;;;;;;;;;;;22.10;99.90;;;;;;5123417;27;19918;-47
2023/08/05 11:30:12;;;;;;;;;;;22.10;99.90;;;;;;5143769;27;19919;-44
2023/08/05 11:32:50;;;;;;;;;;;22.10;99.90;;;;;;5132069;27;19911;-45
2023/08/05 11:35:15;;;;;;;;;;;22.10;99.90;;;;;;5117400;27;19916;-46
2023/08/05 11:37:41;;;;;;;;;;;22.10;99.90;;;;;;5117275;27;19919;-45
2023/08/05 11:40:06;;;;;;;;;;;22.10;99.90;;;;;;5126513;27;19915;-45
2023/08/05 11:42:32;;;;;;;;;;;22.20;99.90;;;;;;5115647;27;19920;-46
2023/08/05 11:44:58;;;;;;;;;;;22.30;99.90;;;;;;5131686;27;20047;-45
2023/08/05 11:47:26;;;;;;;;;;;22.30;99.90;;;;;;5132611;27;20409;-45
2023/08/05 11:49:52;;;;;;;;;;;22.30;99.90;;;;;;5123407;27;19908;-46
2023/08/05 11:52:18;;;;;;;;;;;22.40;99.90;;;;;;5127596;27;19964;-46
2023/08/05 11:54:47;;;;;;;;;;;22.30;99.90;;;;;;5132339;27;20654;-45
2023/08/05 11:57:19;;;;;;;;;;;22.20;99.90;;;;;;5121979;28;19974;-46
2023/08/05 11:59:46;;;;;;;;;;;22.20;99.90;;;;;;5113055;28;19919;-45
2023/08/05 12:02:12;;;;;;;;;;;22.20;99.90;;;;;;5129110;28;19917;-47
2023/08/05 12:04:47;;;;;;;;;;;22.10;99.90;;;;;;5133230;27;20022;-44
2023/08/05 12:07:13;;;;;;;;;;;22.10;99.90;;;;;;5132630;28;20016;-44
2023/08/05 12:09:39;;;;;;;;;;;22.00;99.90;;;;;;5132802;28;20002;-45
2023/08/05 12:12:05;;;;;;;;;;;21.80;99.90;;;;;;5132481;28;19950;-46
2023/08/05 12:14:31;;;;;;;;;;;21.60;99.90;;;;;;5131729;28;19908;-45
2023/08/05 12:16:59;;;;;;;;;;;21.50;99.90;;;;;;5132228;28;20406;-44
2023/08/05 12:19:29;;;;;;;;;;;21.30;99.90;;;;;;5132080;28;20286;-45
2023/08/05 12:21:54;;;;;;;;;;;21.10;99.90;;;;;;5132500;28;19972;-46
2023/08/05 12:24:19;;;;;;;;;;;21.00;99.90;;;;;;5145490;27;19959;-45
2023/08/05 12:26:45;;;;;;;;;;;20.90;99.90;;;;;;5143315;27;19915;-45
2023/08/05 12:29:10;;;;;;;;;;;20.90;99.90;;;;;;5133712;28;19907;-45
2023/08/05 12:31:36;;;;;;;;;;;20.90;99.90;;;;;;5133326;28;20484;-45
2023/08/05 12:34:01;;;;;;;;;;;20.90;99.90;;;;;;5131607;28;20382;-45
2023/08/05 12:36:27;;;;;;;;;;;20.90;99.90;;;;;;5132874;27;19918;-45
2023/08/05 12:38:53;;;;;;;;;;;20.90;99.90;;;;;;5136178;27;19907;-44
2023/08/05 12:41:18;;;;;;;;;;;21.00;99.90;;;;;;5146681;27;19919;-44
2023/08/05 12:43:44;;;;;;;;;;;21.10;99.90;;;;;;5135498;27;19953;-45
2023/08/05 12:46:09;;;;;;;;;;;21.10;99.90;;;;;;5135557;27;19946;-45
2023/08/05 12:48:35;;;;;;;;;;;21.20;99.90;;;;;;5132658;27;20249;-45
2023/08/05 12:51:00;;;;;;;;;;;21.30;99.90;;;;;;5133176;27;19908;-44
2023/08/05 12:53:26;;;;;;;;;;;21.30;99.90;;;;;;5135100;27;19956;-46
2023/08/05 12:55:51;;;;;;;;;;;21.40;99.90;;;;;;5117244;27;20006;-45
2023/08/05 12:58:17;;;;;;;;;;;21.40;99.90;;;;;;5119822;27;19919;-45
2023/08/05 13:00:42;;;;;;;;;;;21.40;99.90;;;;;;5129617;27;20516;-45
2023/08/05 13:03:08;;;;;;;;;;;21.30;99.90;;;;;;5134746;27;20014;-46
2023/08/05 13:05:33;;;;;;;;;;;21.30;99.90;;;;;;5116388;28;19951;-44
2023/08/05 13:07:59;;;;;;;;;;;21.20;99.90;;;;;;5116244;28;19908;-44
2023/08/05 13:10:24;;;;;;;;;;;21.10;99.90;;;;;;5115671;28;20014;-46
2023/08/05 13:12:50;;;;;;;;;;;21.10;99.90;;;;;;5116295;28;19908;-44
2023/08/05 13:15:15;;;;;;;;;;;21.10;99.90;;;;;;5116311;28;19907;-45
2023/08/05 13:17:41;;;;;;;;;;;21.10;99.90;;;;;;5115343;28;19907;-44
2023/08/05 13:20:07;;;;;;;;;;;21.10;99.90;;;;;;5116087;28;19908;-45
2023/08/05 13:22:32;;;;;;;;;;;21.10;99.90;;;;;;5127769;27;20006;-45
2023/08/05 13:24:59;;;;;;;;;;;21.10;99.90;;;;;;5116821;27;19919;-45
2023/08/05 13:27:27;;;;;;;;;;;20.90;99.90;;;;;;5115898;28;19908;-44
2023/08/05 13:29:53;;;;;;;;;;;20.90;99.90;;;;;;5135327;27;19911;-44
2023/08/05 13:32:18;;;;;;;;;;;20.80;99.90;;;;;;5157156;27;19911;-44
2023/08/05 13:34:44;;;;;;;;;;;20.70;99.90;;;;;;5156250;27;20027;-45
2023/08/05 13:37:10;;;;;;;;;;;20.60;99.90;;;;;;5135251;27;19918;-44
2023/08/05 13:39:35;;;;;;;;;;;20.50;99.90;;;;;;5135253;27;19908;-45
2023/08/05 13:42:01;;;;;;;;;;;20.50;99.90;;;;;;5135093;27;19918;-45
2023/08/05 13:44:26;;;;;;;;;;;20.40;99.90;;;;;;5126556;27;19920;-47
2023/08/05 13:46:52;;;;;;;;;;;20.40;99.90;;;;;;5120721;27;20002;-45
2023/08/05 13:49:18;;;;;;;;;;;20.30;99.90;;;;;;5136212;27;19908;-45
2023/08/05 13:51:43;;;;;;;;;;;20.30;99.90;;;;;;5128168;27;19920;-44
2023/08/05 13:54:10;;;;;;;;;;;20.30;99.90;;;;;;5116175;28;19926;-45
2023/08/05 13:56:36;;;;;;;;;;;20.30;99.90;;;;;;5115958;28;19914;-45
2023/08/05 13:59:02;;;;;;;;;;;20.30;99.90;;;;;;5115558;28;19911;-45
2023/08/05 14:01:27;;;;;;;;;;;20.40;99.90;;;;;;5130517;27;19908;-44
2023/08/05 14:03:53;;;;;;;;;;;20.40;99.90;;;;;;5136359;27;19926;-45
2023/08/05 14:06:18;;;;;;;;;;;20.40;99.90;;;;;;5130341;27;19931;-45
2023/08/05 14:08:44;;;;;;;;;;;20.40;99.90;;;;;;5120271;27;19915;-45
2023/08/05 14:11:09;;;;;;;;;;;20.40;99.90;;;;;;5136393;27;19911;-46